createdAt,value
2022-10-25T00:01:57.827Z,30.52
2022-10-25T00:03:59.577Z,25.45
2022-10-25T00:06:01.824Z,33.97
2022-10-25T00:08:03.519Z,28.70
2022-10-25T00:10:06.339Z,35.47
2022-10-25T00:12:08.799Z,28.85
2022-10-25T00:14:15.870Z,31.83
2022-10-25T00:16:21.063Z,28.83
2022-10-25T00:18:23.370Z,26.20
2022-10-25T00:20:25.311Z,31.15
2022-10-25T00:22:29.305Z,30.10
2022-10-25T00:24:31.237Z,28.80
2022-10-25T00:26:34.483Z,40.22
2022-10-25T00:28:36.284Z,33.38
2022-10-25T00:30:38.263Z,31.83
2022-10-25T00:32:39.997Z,33.53
2022-10-25T00:34:41.841Z,27.77
2022-10-25T00:36:43.729Z,27.97
2022-10-25T00:38:46.340Z,31.27
2022-10-25T00:40:48.202Z,26.73
2022-10-25T00:42:50.175Z,29.05
2022-10-25T00:44:53.600Z,30.80
2022-10-25T00:46:55.585Z,29.60
2022-10-25T00:49:10.746Z,28.35
2022-10-25T00:51:12.521Z,30.55
2022-10-25T00:53:20.373Z,29.15
2022-10-25T00:55:26.147Z,27.38
2022-10-25T00:57:34.600Z,29.92
2022-10-25T00:59:37.436Z,30.15
2022-10-25T01:01:39.640Z,26.92
2022-10-25T01:03:44.564Z,28.67
2022-10-25T01:05:47.226Z,35.08
2022-10-25T01:07:49.463Z,28.58
2022-10-25T01:09:51.495Z,28.20
2022-10-25T01:11:53.167Z,26.67
2022-10-25T01:13:56.400Z,32.25
2022-10-25T01:18:17.616Z,31.38
2022-10-25T01:20:57.725Z,23.00
2022-10-25T01:23:19.437Z,29.00
2022-10-25T01:25:45.090Z,27.58
2022-10-25T01:28:08.253Z,25.73
2022-10-25T01:30:22.523Z,28.65
2022-10-25T01:32:35.043Z,31.40
2022-10-25T01:35:02.504Z,35.47
2022-10-25T01:37:17.880Z,27.45
2022-10-25T01:39:31.184Z,29.52
2022-10-25T01:41:53.017Z,30.05
2022-10-25T01:44:13.952Z,27.55
2022-10-25T01:46:25.736Z,30.67
2022-10-25T01:48:43.470Z,32.67
2022-10-25T01:50:49.045Z,30.17
2022-10-25T01:52:52.390Z,28.33
2022-10-25T01:54:54.300Z,31.73
2022-10-25T01:57:21.016Z,30.00
2022-10-25T01:59:34.296Z,27.80
2022-10-25T02:01:57.532Z,30.40
2022-10-25T02:04:44.033Z,30.92
2022-10-25T02:07:10.973Z,34.20
2022-10-25T02:09:33.092Z,32.35
2022-10-25T02:11:36.443Z,27.00
2022-10-25T02:13:41.011Z,35.70
2022-10-25T02:16:07.916Z,32.03
2022-10-25T02:18:15.792Z,32.80
2022-10-25T02:20:22.584Z,30.20
2022-10-25T02:22:28.815Z,30.50
2022-10-25T02:24:31.972Z,36.25
2022-10-25T02:26:35.496Z,40.63
2022-10-25T02:28:40.276Z,29.73
2022-10-25T02:30:44.024Z,31.45
2022-10-25T02:32:45.965Z,31.77
2022-10-25T02:34:49.206Z,30.85
2022-10-25T02:36:53.107Z,30.60
2022-10-25T02:38:55.633Z,30.60
2022-10-25T02:41:00.151Z,33.90
2022-10-25T02:43:02.075Z,34.60
2022-10-25T02:45:04.273Z,36.17
2022-10-25T02:47:06.043Z,29.83
2022-10-25T02:49:07.732Z,35.38
2022-10-25T02:51:11.571Z,38.22
2022-10-25T02:53:13.241Z,35.00
2022-10-25T02:55:14.984Z,31.10
2022-10-25T02:57:16.912Z,34.20
2022-10-25T02:59:22.549Z,32.43
2022-10-25T03:01:25.252Z,31.95
2022-10-25T03:05:29.688Z,30.05
2022-10-25T03:07:31.355Z,29.17
2022-10-25T03:09:33.199Z,36.75
2022-10-25T03:11:34.926Z,35.75
2022-10-25T03:13:36.653Z,29.63
2022-10-25T03:15:38.538Z,31.60
2022-10-25T03:17:40.187Z,34.95
2022-10-25T03:19:42.312Z,28.97
2022-10-25T03:21:44.221Z,33.08
2022-10-25T03:23:45.881Z,33.17
2022-10-25T03:25:53.485Z,33.65
2022-10-25T03:27:56.238Z,36.83
2022-10-25T03:29:57.856Z,36.03
2022-10-25T03:31:59.531Z,37.67
2022-10-25T03:34:01.452Z,38.15
2022-10-25T03:36:03.352Z,36.03
2022-10-25T03:38:05.841Z,36.67
2022-10-25T03:40:08.249Z,39.17
2022-10-25T03:42:10.319Z,36.08
2022-10-25T03:44:11.965Z,34.90
2022-10-25T03:46:14.091Z,36.22
2022-10-25T03:48:15.756Z,37.75
2022-10-25T03:50:18.052Z,39.05
2022-10-25T03:52:20.059Z,33.17
2022-10-25T03:54:24.386Z,38.47
2022-10-25T03:56:28.632Z,40.50
2022-10-25T03:58:30.606Z,34.72
2022-10-25T04:00:32.477Z,38.20
2022-10-25T04:02:34.317Z,39.45
2022-10-25T04:04:36.715Z,38.33
2022-10-25T04:06:38.475Z,35.13
2022-10-25T04:08:40.316Z,32.25
2022-10-25T04:10:42.247Z,34.47
2022-10-25T04:12:43.940Z,34.92
2022-10-25T04:14:45.609Z,32.60
2022-10-25T04:16:47.524Z,32.47
2022-10-25T04:18:53.044Z,33.67
2022-10-25T04:20:54.701Z,35.20
2022-10-25T04:22:57.366Z,36.83
2022-10-25T04:24:59.167Z,29.88
2022-10-25T04:27:00.819Z,32.17
2022-10-25T04:29:04.368Z,30.17
2022-10-25T04:31:06.017Z,33.63
2022-10-25T04:33:07.933Z,31.73
2022-10-25T04:35:11.027Z,30.17
2022-10-25T04:37:12.640Z,32.95
2022-10-25T04:39:15.186Z,34.22
2022-10-25T04:41:17.986Z,29.95
2022-10-25T04:43:19.636Z,29.10
2022-10-25T04:45:21.390Z,30.55
2022-10-25T04:47:23.291Z,32.88
2022-10-25T04:49:25.152Z,32.20
2022-10-25T04:51:27.023Z,27.80
2022-10-25T04:53:29.022Z,30.57
2022-10-25T04:55:31.508Z,34.65
2022-10-25T04:57:33.575Z,32.65
2022-10-25T04:59:35.464Z,31.90
2022-10-25T05:01:37.437Z,39.35
2022-10-25T05:03:39.999Z,40.35
2022-10-25T05:05:41.940Z,29.27
2022-10-25T05:07:43.643Z,32.63
2022-10-25T05:09:47.425Z,29.92
2022-10-25T05:11:49.623Z,32.35
2022-10-25T05:13:51.325Z,36.10
2022-10-25T05:15:58.639Z,35.63
2022-10-25T05:18:01.421Z,32.13
2022-10-25T05:20:03.583Z,38.50
2022-10-25T05:22:05.259Z,34.63
2022-10-25T05:24:07.251Z,36.15
2022-10-25T05:26:08.959Z,38.38
2022-10-25T05:28:10.781Z,39.80
2022-10-25T05:30:12.861Z,36.63
2022-10-25T05:32:14.516Z,37.60
2022-10-25T05:34:16.243Z,36.00
2022-10-25T05:36:18.730Z,35.38
2022-10-25T05:38:20.497Z,33.53
2022-10-25T05:40:22.190Z,36.40
2022-10-25T05:42:24.228Z,37.65
2022-10-25T05:44:25.925Z,35.63
2022-10-25T05:46:27.563Z,36.35
2022-10-25T05:48:29.489Z,36.53
2022-10-25T05:50:31.245Z,35.45
2022-10-25T05:52:33.013Z,33.92
2022-10-25T05:54:35.124Z,74.35
2022-10-25T05:56:37.586Z,35.75
2022-10-25T05:58:39.825Z,36.67
2022-10-25T06:00:41.918Z,36.17
2022-10-25T06:02:43.747Z,37.30
2022-10-25T06:04:50.258Z,35.45
2022-10-25T06:06:54.235Z,32.78
2022-10-25T06:09:00.828Z,38.38
2022-10-25T06:11:05.403Z,32.92
2022-10-25T06:13:07.240Z,36.67
2022-10-25T06:15:09.567Z,36.20
2022-10-25T06:17:12.662Z,31.77
2022-10-25T06:19:14.571Z,26.98
2022-10-25T06:21:21.852Z,26.90
2022-10-25T06:23:23.534Z,27.27
2022-10-25T06:25:25.360Z,29.42
2022-10-25T06:27:27.274Z,27.15
2022-10-25T06:29:29.101Z,27.27
2022-10-25T06:31:32.286Z,25.77
2022-10-25T06:35:36.148Z,28.85
2022-10-25T06:37:38.009Z,22.27
2022-10-25T06:39:39.627Z,26.67
2022-10-25T06:41:41.610Z,24.58
2022-10-25T06:43:44.385Z,21.02
2022-10-25T06:45:46.045Z,24.00
2022-10-25T06:47:47.697Z,27.80
2022-10-25T06:49:49.553Z,26.92
2022-10-25T06:51:51.324Z,23.98
2022-10-25T06:53:54.930Z,23.90
2022-10-25T06:56:09.330Z,29.33
2022-10-25T06:58:12.288Z,20.33
2022-10-25T07:00:14.424Z,22.60
2022-10-25T07:02:16.515Z,23.05
2022-10-25T07:04:18.327Z,27.85
2022-10-25T07:06:27.818Z,22.85
2022-10-25T07:08:29.836Z,24.50
2022-10-25T07:10:31.528Z,22.55
2022-10-25T07:12:38.004Z,23.50
2022-10-25T07:14:39.974Z,20.42
2022-10-25T07:16:41.645Z,23.73
2022-10-25T07:18:44.302Z,19.63
2022-10-25T07:20:48.494Z,18.52
2022-10-25T07:22:50.421Z,18.98
2022-10-25T07:24:52.136Z,22.13
2022-10-25T07:26:54.261Z,20.65
2022-10-25T07:28:57.884Z,20.23
2022-10-25T07:30:59.582Z,21.10
2022-10-25T07:33:03.228Z,20.77
2022-10-25T07:35:05.511Z,17.90
2022-10-25T07:37:07.227Z,17.30
2022-10-25T07:39:09.348Z,23.98
2022-10-25T07:41:12.193Z,19.60
2022-10-25T07:43:14.165Z,23.85
2022-10-25T07:45:18.718Z,23.90
2022-10-25T07:47:24.317Z,18.77
2022-10-25T07:49:26.142Z,19.05
2022-10-25T07:51:27.915Z,15.23
2022-10-25T07:53:29.553Z,17.87
2022-10-25T07:55:31.679Z,15.48
2022-10-25T07:57:33.464Z,23.98
2022-10-25T07:59:35.325Z,18.80
2022-10-25T08:01:37.655Z,21.57
2022-10-25T08:03:39.492Z,19.08
2022-10-25T08:05:46.502Z,16.35
2022-10-25T08:07:50.329Z,15.45
2022-10-25T08:09:51.994Z,19.92
2022-10-25T08:11:54.664Z,19.83
2022-10-25T08:15:58.371Z,22.77
2022-10-25T08:18:01.804Z,19.35
2022-10-25T08:20:04.575Z,18.02
2022-10-25T08:22:06.245Z,21.13
2022-10-25T08:24:08.359Z,22.48
2022-10-25T08:26:10.651Z,16.98
2022-10-25T08:28:12.624Z,20.60
2022-10-25T08:30:14.445Z,19.53
2022-10-25T08:32:16.466Z,21.35
2022-10-25T08:34:18.200Z,20.30
2022-10-25T08:36:20.369Z,25.88
2022-10-25T08:38:22.313Z,17.63
2022-10-25T08:40:37.769Z,20.02
2022-10-25T08:43:07.667Z,19.00
2022-10-25T08:45:28.812Z,20.13
2022-10-25T08:47:39.349Z,19.17
2022-10-25T08:49:55.527Z,19.52
2022-10-25T08:51:59.400Z,16.38
2022-10-25T08:54:06.397Z,20.20
2022-10-25T08:56:17.722Z,21.95
2022-10-25T08:58:28.435Z,22.55
2022-10-25T09:00:36.612Z,28.05
2022-10-25T09:02:53.557Z,23.00
2022-10-25T09:04:55.478Z,22.48
2022-10-25T09:07:29.140Z,22.10
2022-10-25T09:09:33.806Z,21.92
2022-10-25T09:12:00.720Z,24.52
2022-10-25T09:14:22.270Z,26.73
2022-10-25T09:16:51.385Z,23.40
2022-10-25T09:18:55.355Z,23.17
2022-10-25T09:20:58.640Z,24.05
2022-10-25T09:23:15.437Z,21.95
2022-10-25T09:25:25.891Z,24.23
2022-10-25T09:30:37.873Z,19.33
2022-10-25T09:32:45.456Z,20.85
2022-10-25T09:34:47.850Z,19.40
2022-10-25T09:36:55.468Z,18.48
2022-10-25T09:39:03.098Z,24.08
2022-10-25T09:41:19.260Z,21.77
2022-10-25T09:43:28.066Z,22.17
2022-10-25T09:45:44.132Z,18.85
2022-10-25T09:48:03.041Z,19.55
2022-10-25T09:50:11.178Z,21.77
2022-10-25T09:52:30.280Z,20.55
2022-10-25T09:54:50.078Z,21.92
2022-10-25T09:56:51.966Z,18.77
2022-10-25T09:58:54.126Z,25.38
2022-10-25T10:01:09.149Z,23.15
2022-10-25T10:03:13.124Z,25.15
2022-10-25T10:05:17.745Z,21.05
2022-10-25T10:07:22.777Z,25.15
2022-10-25T10:09:28.632Z,27.42
2022-10-25T10:11:32.575Z,25.45
2022-10-25T10:13:40.360Z,33.10
2022-10-25T10:15:51.488Z,23.65
2022-10-25T10:18:26.829Z,26.48
2022-10-25T10:20:28.740Z,31.35
2022-10-25T10:22:30.726Z,21.90
2022-10-25T10:24:36.149Z,24.63
2022-10-25T10:26:47.604Z,29.85
2022-10-25T10:28:53.591Z,25.02
2022-10-25T10:30:58.566Z,25.73
2022-10-25T10:33:02.088Z,27.95
2022-10-25T10:35:06.972Z,25.40
2022-10-25T10:37:20.416Z,23.50
2022-10-25T10:39:23.579Z,26.17
2022-10-25T10:41:25.381Z,27.63
2022-10-25T10:43:30.718Z,22.77
2022-10-25T10:45:34.079Z,20.88
2022-10-25T10:47:50.997Z,22.55
2022-10-25T10:49:53.261Z,24.33
2022-10-25T10:51:56.758Z,19.08
2022-10-25T10:53:58.659Z,23.17
2022-10-25T10:56:02.948Z,23.58
2022-10-25T10:58:18.595Z,20.98
2022-10-25T11:00:27.621Z,23.02
2022-10-25T11:02:42.734Z,19.95
2022-10-25T11:04:49.594Z,22.88
2022-10-25T11:06:51.464Z,23.30
2022-10-25T11:09:19.418Z,20.98
2022-10-25T11:11:23.086Z,21.73
2022-10-25T11:13:25.857Z,21.48
2022-10-25T11:15:30.183Z,16.25
2022-10-25T11:17:36.653Z,17.90
2022-10-25T11:19:41.565Z,22.02
2022-10-25T11:21:58.863Z,18.88
2022-10-25T11:24:29.673Z,18.75
2022-10-25T11:26:58.163Z,14.32
2022-10-25T11:29:25.696Z,20.17
2022-10-25T11:31:46.220Z,16.52
2022-10-25T11:34:13.729Z,21.25
2022-10-25T11:36:28.288Z,16.10
2022-10-25T11:38:36.533Z,17.65
2022-10-25T11:40:52.699Z,17.80
2022-10-25T11:42:55.232Z,17.60
2022-10-25T11:45:19.028Z,19.60
2022-10-25T11:47:56.034Z,20.75
2022-10-25T11:50:39.982Z,18.55
2022-10-25T11:53:10.273Z,16.92
2022-10-25T11:55:39.584Z,17.75
2022-10-25T11:58:19.402Z,23.40
2022-10-25T12:00:37.756Z,19.80
2022-10-25T12:02:54.884Z,23.55
2022-10-25T12:05:20.089Z,17.08
2022-10-25T12:07:25.094Z,20.20
2022-10-25T12:09:43.882Z,23.35
2022-10-25T12:11:52.433Z,16.30
2022-10-25T12:14:06.400Z,19.75
2022-10-25T12:18:29.465Z,19.65
2022-10-25T12:20:32.773Z,21.67
2022-10-25T12:22:39.869Z,20.13
2022-10-25T12:24:52.796Z,23.55
2022-10-25T12:26:55.608Z,19.25
2022-10-25T12:29:03.036Z,18.67
2022-10-25T12:31:25.322Z,19.70
2022-10-25T12:33:41.195Z,21.30
2022-10-25T12:35:49.557Z,20.33
2022-10-25T12:38:06.973Z,26.23
2022-10-25T12:40:18.620Z,22.10
2022-10-25T12:42:34.758Z,20.30
2022-10-25T12:44:56.527Z,16.90
2022-10-25T12:47:23.089Z,18.65
2022-10-25T12:49:57.290Z,21.35
2022-10-25T12:52:05.399Z,16.10
2022-10-25T12:54:20.328Z,20.65
2022-10-25T12:56:46.749Z,16.65
2022-10-25T12:59:43.434Z,20.05
2022-10-25T13:02:04.873Z,18.90
2022-10-25T13:04:25.748Z,16.58
2022-10-25T13:06:48.171Z,17.13
2022-10-25T13:08:50.757Z,19.98
2022-10-25T13:13:14.431Z,18.75
2022-10-25T13:15:19.727Z,18.45
2022-10-25T13:17:21.918Z,20.83
2022-10-25T13:19:54.078Z,23.15
2022-10-25T13:21:55.175Z,19.83
2022-10-25T13:23:59.974Z,16.88
2022-10-25T13:26:08.275Z,20.77
2022-10-25T13:28:16.199Z,19.52
2022-10-25T13:32:42.404Z,18.63
2022-10-25T13:34:44.745Z,14.35
2022-10-25T13:36:54.121Z,18.38
2022-10-25T13:39:05.491Z,16.50
2022-10-25T13:41:10.260Z,14.65
2022-10-25T13:43:20.699Z,21.77
2022-10-25T13:45:43.002Z,18.73
2022-10-25T13:47:54.221Z,19.38
2022-10-25T13:49:56.722Z,19.95
2022-10-25T13:52:05.779Z,23.00
2022-10-25T13:54:12.047Z,28.10
2022-10-25T13:56:33.717Z,24.45
2022-10-25T13:58:45.018Z,20.80
2022-10-25T14:00:52.288Z,18.38
2022-10-25T14:03:05.818Z,22.55
2022-10-25T14:05:10.909Z,21.17
2022-10-25T14:07:51.466Z,20.73
2022-10-25T14:09:56.093Z,21.50
2022-10-25T14:12:00.917Z,22.92
2022-10-25T14:14:12.209Z,17.45
2022-10-25T14:16:25.927Z,15.88
2022-10-25T14:18:30.155Z,15.15
2022-10-25T14:20:32.686Z,20.35
2022-10-25T14:24:48.738Z,16.23
2022-10-25T14:26:58.913Z,19.85
2022-10-25T14:29:20.428Z,14.38
2022-10-25T14:31:22.490Z,18.60
2022-10-25T14:33:28.204Z,19.60
2022-10-25T14:35:46.987Z,17.58
2022-10-25T14:37:49.174Z,19.20
2022-10-25T14:39:52.954Z,18.25
2022-10-25T14:42:02.351Z,15.77
2022-10-25T14:44:20.858Z,22.95
2022-10-25T14:46:25.621Z,19.95
2022-10-25T14:48:28.334Z,24.27
2022-10-25T14:50:30.178Z,15.50
2022-10-25T14:52:32.359Z,21.08
2022-10-25T14:54:36.490Z,15.73
2022-10-25T14:57:00.812Z,21.73
2022-10-25T14:59:05.150Z,17.05
2022-10-25T15:01:10.481Z,19.10
2022-10-25T15:03:13.674Z,19.25
2022-10-25T15:05:24.156Z,17.88
2022-10-25T15:07:44.053Z,18.80
2022-10-25T15:09:50.474Z,19.85
2022-10-25T15:12:05.954Z,19.65
2022-10-25T15:14:21.971Z,19.73
2022-10-25T15:16:33.095Z,15.13
2022-10-25T15:18:38.443Z,19.15
2022-10-25T15:20:40.777Z,18.83
2022-10-25T15:22:45.540Z,17.30
2022-10-25T15:24:49.050Z,18.08
2022-10-25T15:27:02.432Z,18.10
2022-10-25T15:29:04.344Z,16.83
2022-10-25T15:31:07.452Z,19.87
2022-10-25T15:33:12.996Z,17.42
2022-10-25T15:35:24.369Z,18.20
2022-10-25T15:37:29.775Z,21.67
2022-10-25T15:39:35.426Z,26.15
2022-10-25T15:41:38.592Z,19.20
2022-10-25T15:43:40.474Z,19.02
2022-10-25T15:45:44.166Z,16.52
2022-10-25T15:47:47.470Z,16.63
2022-10-25T15:49:53.448Z,18.38
2022-10-25T15:51:55.820Z,17.35
2022-10-25T15:53:57.725Z,17.30
2022-10-25T15:56:01.841Z,15.52
2022-10-25T15:58:09.634Z,21.40
2022-10-25T16:00:18.160Z,19.00
2022-10-25T16:02:27.208Z,18.73
2022-10-25T16:04:29.781Z,18.17
2022-10-25T16:06:32.156Z,19.07
2022-10-25T16:10:58.135Z,16.60
2022-10-25T16:13:05.942Z,21.15
2022-10-25T16:15:14.237Z,19.25
2022-10-25T16:17:16.343Z,18.00
2022-10-25T16:19:20.346Z,14.10
2022-10-25T16:21:22.651Z,18.73
2022-10-25T16:23:25.951Z,19.92
2022-10-25T16:27:35.131Z,20.15
2022-10-25T16:29:37.233Z,15.27
2022-10-25T16:31:39.161Z,22.48
2022-10-25T16:35:44.304Z,19.35
2022-10-25T16:37:46.341Z,17.02
2022-10-25T16:39:48.579Z,18.90
2022-10-25T16:41:52.654Z,23.50
2022-10-25T16:43:55.430Z,18.92
2022-10-25T16:45:57.396Z,21.92
2022-10-25T16:48:00.395Z,18.70
2022-10-25T16:52:06.238Z,30.58
2022-10-25T16:54:08.736Z,18.83
2022-10-25T16:56:11.625Z,28.42
2022-10-25T16:58:13.535Z,21.48
2022-10-25T17:00:16.354Z,24.85
2022-10-25T17:02:21.625Z,18.25
2022-10-25T17:04:23.965Z,18.60
2022-10-25T17:06:40.708Z,16.98
2022-10-25T17:08:44.034Z,15.88
2022-10-25T17:10:51.281Z,22.25
2022-10-25T17:13:03.994Z,16.75
2022-10-25T17:15:08.779Z,16.85
2022-10-25T17:17:10.956Z,18.85
2022-10-25T17:19:13.535Z,17.70
2022-10-25T17:21:17.092Z,18.00
2022-10-25T17:23:19.665Z,16.27
2022-10-25T17:25:21.817Z,19.02
2022-10-25T17:27:23.654Z,23.33
2022-10-25T17:29:25.596Z,16.98
2022-10-25T17:31:32.758Z,22.13
2022-10-25T17:33:34.671Z,32.95
2022-10-25T17:35:41.251Z,28.38
2022-10-25T17:37:44.556Z,24.20
2022-10-25T17:39:46.886Z,26.17
2022-10-25T17:41:48.735Z,22.03
2022-10-25T17:43:54.495Z,17.63
2022-10-25T17:46:03.481Z,23.48
2022-10-25T17:48:05.979Z,23.13
2022-10-25T17:50:12.870Z,20.55
2022-10-25T17:52:14.849Z,20.92
2022-10-25T17:54:17.917Z,19.92
2022-10-25T17:56:21.956Z,24.17
2022-10-25T17:58:24.053Z,20.45
2022-10-25T18:00:25.891Z,25.40
2022-10-25T18:02:28.295Z,18.42
2022-10-25T18:04:40.762Z,20.07
2022-10-25T18:06:52.219Z,22.20
2022-10-25T18:08:59.358Z,24.45
2022-10-25T18:11:08.287Z,21.05
2022-10-25T18:13:10.466Z,20.30
2022-10-25T18:15:12.721Z,22.65
2022-10-25T18:17:14.770Z,28.98
2022-10-25T18:19:16.815Z,27.15
2022-10-25T18:21:19.022Z,29.77
2022-10-25T18:23:21.007Z,31.95
2022-10-25T18:25:23.230Z,123.53
2022-10-25T18:27:25.387Z,29.70
2022-10-25T18:29:27.577Z,28.50
2022-10-25T18:31:29.590Z,32.17
2022-10-25T18:33:33.465Z,34.25
2022-10-25T18:35:35.527Z,32.83
2022-10-25T18:37:38.877Z,29.83
2022-10-25T18:39:41.162Z,35.35
2022-10-25T18:41:44.313Z,34.47
2022-10-25T18:43:48.435Z,43.25
2022-10-25T18:45:55.983Z,36.35
2022-10-25T18:47:59.161Z,34.22
2022-10-25T18:50:01.008Z,31.08
2022-10-25T18:52:03.653Z,32.00
2022-10-25T18:54:05.514Z,33.75
2022-10-25T18:56:12.423Z,37.58
2022-10-25T18:58:15.431Z,33.22
2022-10-25T19:00:17.653Z,33.80
2022-10-25T19:02:19.758Z,30.77
2022-10-25T19:04:22.994Z,34.22
2022-10-25T19:06:25.333Z,37.33
2022-10-25T19:08:27.188Z,29.02
2022-10-25T19:10:29.457Z,34.97
2022-10-25T19:12:31.321Z,35.50
2022-10-25T19:14:33.199Z,31.13
2022-10-25T19:16:40.828Z,32.50
2022-10-25T19:18:42.759Z,31.55
2022-10-25T19:20:46.812Z,29.42
2022-10-25T19:22:49.628Z,31.10
2022-10-25T19:24:51.475Z,26.45
2022-10-25T19:26:53.637Z,32.95
2022-10-25T19:29:01.231Z,30.67
2022-10-25T19:31:08.720Z,31.15
2022-10-25T19:33:11.870Z,30.70
2022-10-25T19:35:14.490Z,30.83
2022-10-25T19:37:18.126Z,31.73
2022-10-25T19:39:20.131Z,30.88
2022-10-25T19:41:24.343Z,32.15
2022-10-25T19:43:26.748Z,33.80
2022-10-25T19:45:29.839Z,36.30
2022-10-25T19:47:35.391Z,34.00
2022-10-25T19:49:38.667Z,36.75
2022-10-25T19:51:41.430Z,38.17
2022-10-25T19:53:43.988Z,36.25
2022-10-25T19:55:58.179Z,45.17
2022-10-25T19:58:02.057Z,36.78
2022-10-25T20:00:07.629Z,36.05
2022-10-25T20:02:13.098Z,37.45
2022-10-25T20:04:15.173Z,39.10
2022-10-25T20:06:23.518Z,38.80
2022-10-25T20:08:27.090Z,39.42
2022-10-25T20:10:28.999Z,32.37
2022-10-25T20:12:33.967Z,40.53
2022-10-25T20:14:37.834Z,39.90
2022-10-25T20:16:39.843Z,37.38
2022-10-25T20:18:42.841Z,39.92
2022-10-25T20:20:44.949Z,39.45
2022-10-25T20:22:46.769Z,40.73
2022-10-25T20:24:49.009Z,42.75
2022-10-25T20:26:53.293Z,33.47
2022-10-25T20:28:57.207Z,35.92
2022-10-25T20:31:03.435Z,33.20
2022-10-25T20:33:06.879Z,33.40
2022-10-25T20:35:08.778Z,34.72
2022-10-25T20:37:11.023Z,38.55
2022-10-25T20:39:13.600Z,35.22
2022-10-25T20:41:18.468Z,36.35
2022-10-25T20:43:20.572Z,32.35
2022-10-25T20:45:22.440Z,37.38
2022-10-25T20:47:24.259Z,35.30
2022-10-25T20:49:26.836Z,34.08
2022-10-25T20:51:29.165Z,37.58
2022-10-25T20:53:31.144Z,38.78
2022-10-25T20:55:33.434Z,42.45
2022-10-25T20:57:37.379Z,34.85
2022-10-25T20:59:39.353Z,41.20
2022-10-25T21:01:41.635Z,43.13
2022-10-25T21:03:43.692Z,37.83
2022-10-25T21:05:46.334Z,39.75
2022-10-25T21:08:21.331Z,43.55
2022-10-25T21:10:23.338Z,39.75
2022-10-25T21:12:26.688Z,39.30
2022-10-25T21:14:28.597Z,42.13
2022-10-25T21:16:30.452Z,41.30
2022-10-25T21:18:33.114Z,44.33
2022-10-25T21:20:37.410Z,39.25
2022-10-25T21:22:41.211Z,35.65
2022-10-25T21:24:44.287Z,40.72
2022-10-25T21:26:47.586Z,37.47
2022-10-25T21:28:49.564Z,40.72
2022-10-25T21:30:52.101Z,36.88
2022-10-25T21:32:53.978Z,39.55
2022-10-25T21:34:56.205Z,33.53
2022-10-25T21:36:58.632Z,39.55
2022-10-25T21:39:00.760Z,41.38
2022-10-25T21:41:11.692Z,32.60
2022-10-25T21:43:13.860Z,34.78
2022-10-25T21:45:15.831Z,35.13
2022-10-25T21:47:17.700Z,36.72
2022-10-25T21:49:20.003Z,36.47
2022-10-25T21:51:24.417Z,36.35
2022-10-25T21:53:26.310Z,36.25
2022-10-25T21:55:28.932Z,37.60
2022-10-25T21:57:30.786Z,37.72
2022-10-25T21:59:32.807Z,35.17
2022-10-25T22:01:35.244Z,37.78
2022-10-25T22:03:37.442Z,36.00
2022-10-25T22:05:43.355Z,38.90
2022-10-25T22:07:45.677Z,36.72
2022-10-25T22:09:47.702Z,38.25
2022-10-25T22:11:51.755Z,36.28
2022-10-25T22:13:56.342Z,39.33
2022-10-25T22:16:05.541Z,36.15
2022-10-25T22:18:07.400Z,35.55
2022-10-25T22:20:10.310Z,35.55
2022-10-25T22:22:12.162Z,43.65
2022-10-25T22:24:14.047Z,38.53
2022-10-25T22:26:18.472Z,40.75
2022-10-25T22:28:20.320Z,35.00
2022-10-25T22:30:22.214Z,35.17
2022-10-25T22:32:24.482Z,34.60
2022-10-25T22:34:27.666Z,37.65
2022-10-25T22:36:33.051Z,38.05
2022-10-25T22:38:35.859Z,34.63
2022-10-25T22:40:37.783Z,37.92
2022-10-25T22:42:39.664Z,43.78
2022-10-25T22:44:41.800Z,36.75
2022-10-25T22:46:43.727Z,37.13
2022-10-25T22:48:48.826Z,42.65
2022-10-25T22:52:53.948Z,42.17
2022-10-25T22:54:55.967Z,36.85
2022-10-25T22:56:58.196Z,36.95
2022-10-25T22:59:02.467Z,40.28
2022-10-25T23:01:06.458Z,36.88
2022-10-25T23:03:08.639Z,43.38
2022-10-25T23:05:10.548Z,46.80
2022-10-25T23:07:12.509Z,39.60
2022-10-25T23:09:14.740Z,43.53
2022-10-25T23:11:19.025Z,43.30
2022-10-25T23:13:20.824Z,39.30
2022-10-25T23:15:23.051Z,43.15
2022-10-25T23:17:25.204Z,44.97
2022-10-25T23:19:27.220Z,42.03
2022-10-25T23:21:31.023Z,52.92
2022-10-25T23:23:35.620Z,45.83
2022-10-25T23:25:37.511Z,43.83
2022-10-25T23:27:39.619Z,42.72
2022-10-25T23:29:41.475Z,48.15
2022-10-25T23:31:43.297Z,44.65
2022-10-25T23:33:45.912Z,46.13
2022-10-25T23:35:47.711Z,44.78
2022-10-25T23:37:50.119Z,45.88
2022-10-25T23:39:52.380Z,44.42
2022-10-25T23:41:56.977Z,45.20
2022-10-25T23:43:59.138Z,49.25
2022-10-25T23:46:01.727Z,45.08
2022-10-25T23:48:03.617Z,45.67
2022-10-25T23:50:05.999Z,42.20
2022-10-25T23:52:08.146Z,46.53
2022-10-25T23:54:10.078Z,41.47
2022-10-25T23:56:13.240Z,46.33
2022-10-25T23:58:15.793Z,44.83
